Time;durP1;ratioP1;P1;durP2;ratioP2;P2;SDS_P1;SDS_P2;PMS_P1;PMS_P2;Temp;Humidity;BMP_temperature;BMP_pressure;BME280_temperature;BME280_humidity;BME280_pressure;Samples;Min_cycle;Max_cycle;Signal;HPM_P1;HPM_P2
2022/05/08 00:02:07;;;;;;;18.10;4.18;;;8.80;99.90;;;;;;5018278;28;20042;-81
2022/05/08 00:04:33;;;;;;;21.63;4.93;;;8.80;99.90;;;;;;5032069;28;20083;-81
2022/05/08 00:06:59;;;;;;;14.65;3.70;;;8.80;99.90;;;;;;5030610;28;20045;-81
2022/05/08 00:09:24;;;;;;;17.10;4.40;;;8.80;99.90;;;;;;5028684;28;20579;-80
2022/05/08 00:11:52;;;;;;;20.55;4.47;;;8.70;99.90;;;;;;5032592;28;20074;-81
2022/05/08 00:14:18;;;;;;;22.67;4.30;;;8.70;99.90;;;;;;5014106;28;20091;-81
2022/05/08 00:16:43;;;;;;;19.35;3.85;;;8.60;99.90;;;;;;5037544;28;20053;-81
2022/05/08 00:19:09;;;;;;;19.40;3.65;;;8.60;99.90;;;;;;5018961;28;20413;-81
2022/05/08 00:21:34;;;;;;;11.73;3.33;;;8.60;99.90;;;;;;5033280;28;20037;-81
2022/05/08 00:24:00;;;;;;;23.40;3.83;;;8.60;99.90;;;;;;5032306;28;20511;-81
2022/05/08 00:26:25;;;;;;;29.13;4.18;;;8.70;99.90;;;;;;5016713;28;20136;-81
2022/05/08 00:28:51;;;;;;;18.25;4.75;;;8.60;99.90;;;;;;5026870;28;20065;-81
2022/05/08 00:31:16;;;;;;;21.38;3.92;;;8.70;99.90;;;;;;5023414;28;20036;-82
2022/05/08 00:33:42;;;;;;;16.27;4.10;;;8.70;99.90;;;;;;5047263;28;20048;-82
2022/05/08 00:36:08;;;;;;;27.73;3.97;;;8.60;99.90;;;;;;5044581;28;20396;-82
2022/05/08 00:38:34;;;;;;;16.10;3.78;;;8.60;99.90;;;;;;5043530;28;20032;-82
2022/05/08 00:40:59;;;;;;;21.70;3.88;;;8.60;99.90;;;;;;5025285;28;20636;-82
2022/05/08 00:43:38;;;;;;;16.45;3.78;;;8.60;99.90;;;;;;5040278;28;20033;-82
2022/05/08 00:46:12;;;;;;;15.18;2.95;;;8.60;99.90;;;;;;5027021;28;20116;-80
2022/05/08 00:48:39;;;;;;;12.68;3.03;;;8.60;99.90;;;;;;5024139;28;20060;-80
2022/05/08 00:51:06;;;;;;;13.18;3.17;;;8.60;99.90;;;;;;5039866;28;20174;-80
2022/05/08 00:53:37;;;;;;;12.43;3.90;;;8.50;99.90;;;;;;5042781;28;20064;-80
2022/05/08 00:56:06;;;;;;;23.02;3.78;;;8.50;99.90;;;;;;5042618;28;20052;-81
2022/05/08 00:58:32;;;;;;;13.27;3.20;;;8.50;99.90;;;;;;5032461;28;20168;-80
2022/05/08 01:00:58;;;;;;;18.30;3.35;;;8.50;99.90;;;;;;5039180;28;20503;-81
2022/05/08 01:03:24;;;;;;;13.02;3.25;;;8.40;99.90;;;;;;5021649;28;20045;-81
2022/05/08 01:05:53;;;;;;;13.07;2.85;;;8.40;99.90;;;;;;5024698;28;20519;-80
2022/05/08 01:08:20;;;;;;;13.05;3.53;;;8.50;99.90;;;;;;5027800;28;20041;-80
2022/05/08 01:10:47;;;;;;;16.42;3.60;;;8.40;99.90;;;;;;5033039;28;20060;-81
2022/05/08 01:13:13;;;;;;;16.80;3.50;;;8.40;99.90;;;;;;5019700;28;20289;-80
2022/05/08 01:15:46;;;;;;;18.48;3.58;;;8.40;99.90;;;;;;5031939;28;20112;-80
2022/05/08 01:18:13;;;;;;;14.52;2.60;;;8.40;99.90;;;;;;5033259;28;20050;-80
2022/05/08 01:20:41;;;;;;;16.23;2.80;;;8.40;99.90;;;;;;5044489;28;20485;-81
2022/05/08 01:23:07;;;;;;;17.58;3.63;;;8.40;99.90;;;;;;5030603;28;20056;-81
2022/05/08 01:25:49;;;;;;;18.60;3.42;;;8.40;99.90;;;;;;5041876;28;20037;-81
2022/05/08 01:28:16;;;;;;;17.02;3.45;;;8.40;99.90;;;;;;5029062;28;20057;-81
2022/05/08 01:30:44;;;;;;;17.98;2.92;;;8.30;99.90;;;;;;5036433;28;20049;-81
2022/05/08 01:33:10;;;;;;;15.85;3.60;;;8.30;99.90;;;;;;5049614;28;20214;-81
2022/05/08 01:35:37;;;;;;;14.35;3.55;;;8.30;99.90;;;;;;5031174;28;20033;-81
2022/05/08 01:38:06;;;;;;;14.15;2.90;;;8.30;99.90;;;;;;5027530;28;20405;-80
2022/05/08 01:40:32;;;;;;;17.48;3.28;;;8.30;99.90;;;;;;5030867;28;20050;-81
2022/05/08 01:42:58;;;;;;;14.93;3.08;;;8.30;99.90;;;;;;5030537;28;20037;-81
2022/05/08 01:45:24;;;;;;;17.90;3.63;;;8.20;99.90;;;;;;5035041;28;20586;-81
2022/05/08 01:50:35;;;;;;;16.85;3.22;;;8.20;99.90;;;;;;5045135;28;20053;-80
2022/05/08 01:53:01;;;;;;;9.90;2.30;;;8.10;99.90;;;;;;5028165;28;20328;-81
2022/05/08 01:55:26;;;;;;;14.65;3.60;;;8.10;99.90;;;;;;5022646;28;20061;-80
2022/05/08 01:57:53;;;;;;;14.23;3.67;;;8.10;99.90;;;;;;5028063;28;20053;-80
2022/05/08 02:00:20;;;;;;;14.85;3.35;;;8.00;99.90;;;;;;5022104;28;20073;-80
2022/05/08 02:02:48;;;;;;;24.45;3.97;;;7.90;99.90;;;;;;5030233;28;20480;-80
2022/05/08 02:05:18;;;;;;;11.75;2.80;;;7.90;99.90;;;;;;5048165;28;20047;-80
2022/05/08 02:07:45;;;;;;;18.50;4.07;;;7.90;99.90;;;;;;5053874;28;20137;-80
2022/05/08 02:10:13;;;;;;;14.38;3.30;;;7.90;99.90;;;;;;5048976;28;20044;-80
2022/05/08 02:12:38;;;;;;;15.57;3.13;;;7.90;99.90;;;;;;5045309;28;20043;-80
2022/05/08 02:15:09;;;;;;;9.48;2.83;;;7.90;99.90;;;;;;5044516;28;20052;-79
2022/05/08 02:17:36;;;;;;;12.82;3.97;;;7.90;99.90;;;;;;5060509;28;20073;-80
2022/05/08 02:20:03;;;;;;;9.43;2.53;;;7.90;99.90;;;;;;5032444;28;20416;-80
2022/05/08 02:22:29;;;;;;;15.52;3.17;;;8.10;99.90;;;;;;5060931;28;20041;-80
2022/05/08 02:24:54;;;;;;;12.25;2.95;;;7.90;99.90;;;;;;5038417;28;20140;-80
2022/05/08 02:27:20;;;;;;;19.02;3.53;;;7.90;99.90;;;;;;5053194;28;20462;-79
2022/05/08 02:29:49;;;;;;;9.60;2.45;;;7.90;99.90;;;;;;5051606;28;20045;-80
2022/05/08 02:32:15;;;;;;;12.80;2.95;;;7.90;99.90;;;;;;5038065;28;20101;-80
2022/05/08 02:34:41;;;;;;;13.77;2.80;;;7.80;99.90;;;;;;5033624;28;20477;-80
2022/05/08 02:37:07;;;;;;;15.82;3.30;;;7.80;99.90;;;;;;5054438;28;20404;-80
2022/05/08 02:39:33;;;;;;;10.80;2.75;;;7.80;99.90;;;;;;5045367;28;20054;-79
2022/05/08 02:41:58;;;;;;;11.15;2.67;;;7.70;99.90;;;;;;5065574;28;20044;-79
2022/05/08 02:44:24;;;;;;;19.80;3.72;;;7.70;99.90;;;;;;5054345;28;20124;-79
2022/05/08 02:46:49;;;;;;;13.20;3.15;;;7.60;99.90;;;;;;5046100;28;20160;-80
2022/05/08 02:49:15;;;;;;;15.82;3.78;;;7.60;99.90;;;;;;5032478;28;20049;-80
2022/05/08 02:51:41;;;;;;;9.27;3.10;;;7.50;99.90;;;;;;5042428;28;20068;-79
2022/05/08 02:54:07;;;;;;;19.55;3.13;;;7.50;99.90;;;;;;5036299;28;20090;-80
2022/05/08 02:59:17;;;;;;;13.98;2.70;;;7.50;99.90;;;;;;5045252;28;20044;-80
2022/05/08 03:01:42;;;;;;;16.95;3.03;;;7.40;99.90;;;;;;5032829;28;20495;-80
2022/05/08 03:04:08;;;;;;;11.35;2.40;;;7.40;99.90;;;;;;5040529;28;20053;-80
2022/05/08 03:06:33;;;;;;;15.38;3.40;;;7.40;99.90;;;;;;5046188;28;20049;-80
2022/05/08 03:08:59;;;;;;;19.67;3.55;;;7.40;99.90;;;;;;5039442;28;20180;-80
2022/05/08 03:11:25;;;;;;;9.30;2.95;;;7.40;99.90;;;;;;5055349;28;20036;-80
2022/05/08 03:13:52;;;;;;;12.27;2.65;;;7.40;99.90;;;;;;5035247;28;20079;-80
2022/05/08 03:16:18;;;;;;;12.25;2.63;;;7.40;99.90;;;;;;5066754;28;20121;-80
2022/05/08 03:18:45;;;;;;;16.40;2.67;;;7.40;99.90;;;;;;5054808;28;20044;-80
2022/05/08 03:21:12;;;;;;;10.32;3.05;;;7.40;99.90;;;;;;5048960;28;20344;-80
2022/05/08 03:23:39;;;;;;;7.43;2.50;;;7.40;99.90;;;;;;5062834;28;20044;-80
2022/05/08 03:26:06;;;;;;;9.82;2.67;;;7.40;99.90;;;;;;5061175;28;20345;-80
2022/05/08 03:28:32;;;;;;;14.10;3.40;;;7.40;99.90;;;;;;5034417;28;20046;-80
2022/05/08 03:31:01;;;;;;;18.80;2.88;;;7.40;99.90;;;;;;5058117;28;20037;-80
2022/05/08 03:33:27;;;;;;;7.20;2.38;;;7.30;99.90;;;;;;5054436;28;20093;-79
2022/05/08 03:35:53;;;;;;;14.20;3.88;;;7.30;99.90;;;;;;5060428;28;20142;-80
2022/05/08 03:38:18;;;;;;;12.77;2.80;;;7.30;99.90;;;;;;5024675;28;20142;-79
2022/05/08 03:40:44;;;;;;;7.90;2.05;;;7.30;99.90;;;;;;5049030;28;20041;-80
2022/05/08 03:43:10;;;;;;;11.52;2.85;;;7.30;99.90;;;;;;5055928;28;20032;-80
2022/05/08 03:45:36;;;;;;;14.07;2.63;;;7.30;99.90;;;;;;5038720;28;20087;-79
2022/05/08 03:48:02;;;;;;;7.90;2.03;;;7.30;99.90;;;;;;5062962;28;20040;-80
2022/05/08 03:50:29;;;;;;;10.93;3.15;;;7.20;99.90;;;;;;5041983;28;20260;-79
2022/05/08 03:52:59;;;;;;;10.65;2.53;;;7.30;99.90;;;;;;5046239;28;20075;-80
2022/05/08 03:55:25;;;;;;;12.18;2.88;;;7.30;99.90;;;;;;5054304;28;20174;-79
2022/05/08 03:57:51;;;;;;;7.63;2.25;;;7.30;99.90;;;;;;5046797;28;20067;-79
2022/05/08 04:00:17;;;;;;;11.23;2.65;;;7.30;99.90;;;;;;5061443;28;20067;-79
2022/05/08 04:02:43;;;;;;;8.65;2.30;;;7.30;99.90;;;;;;5052374;28;20082;-79
2022/05/08 04:05:10;;;;;;;9.57;2.60;;;7.40;99.90;;;;;;5035030;28;20049;-79
2022/05/08 04:07:37;;;;;;;11.63;2.38;;;7.40;99.90;;;;;;5046075;28;20106;-80
2022/05/08 04:10:04;;;;;;;9.90;1.83;;;7.40;99.90;;;;;;5047743;28;20136;-79
2022/05/08 04:12:29;;;;;;;7.55;2.50;;;7.30;99.90;;;;;;5037946;28;20049;-80
2022/05/08 04:14:55;;;;;;;9.95;2.60;;;7.30;99.90;;;;;;5011005;28;20045;-79
2022/05/08 04:17:20;;;;;;;8.50;2.35;;;7.30;99.90;;;;;;5028229;28;20424;-79
2022/05/08 04:19:46;;;;;;;8.07;2.40;;;7.20;99.90;;;;;;5040371;28;20219;-79
2022/05/08 04:24:57;;;;;;;6.95;2.20;;;7.20;99.90;;;;;;5028054;28;20041;-79
2022/05/08 04:27:23;;;;;;;11.70;2.22;;;7.20;99.90;;;;;;5033804;28;20114;-79
2022/05/08 04:29:49;;;;;;;9.60;2.00;;;7.20;99.90;;;;;;5044717;28;20049;-79
2022/05/08 04:32:14;;;;;;;12.10;2.38;;;7.20;99.90;;;;;;5041233;28;20041;-79
2022/05/08 04:34:40;;;;;;;10.52;2.40;;;7.20;99.90;;;;;;5033125;28;20136;-81
2022/05/08 04:37:05;;;;;;;7.00;2.10;;;7.20;99.90;;;;;;5046811;28;20140;-81
2022/05/08 04:39:31;;;;;;;6.80;2.50;;;7.30;99.90;;;;;;5048332;28;20149;-81
2022/05/08 04:41:57;;;;;;;10.20;2.50;;;7.30;99.90;;;;;;5042489;28;20056;-79
2022/05/08 04:44:23;;;;;;;7.35;1.90;;;7.30;99.90;;;;;;5019884;28;20076;-79
2022/05/08 04:46:48;;;;;;;6.68;2.20;;;7.30;99.90;;;;;;5047767;28;20045;-79
2022/05/08 04:49:14;;;;;;;12.52;2.10;;;7.30;99.90;;;;;;5029493;28;21806;-79
2022/05/08 04:51:40;;;;;;;15.85;2.13;;;7.30;99.90;;;;;;5034494;28;20095;-79
2022/05/08 04:54:05;;;;;;;9.85;2.40;;;7.30;99.90;;;;;;5032494;28;20043;-79
2022/05/08 04:56:31;;;;;;;7.18;1.70;;;7.30;99.90;;;;;;5051337;28;20060;-79
2022/05/08 04:58:57;;;;;;;12.23;2.45;;;7.40;99.90;;;;;;5049599;28;20037;-79
2022/05/08 05:01:23;;;;;;;7.68;2.13;;;7.80;99.90;;;;;;5035182;28;20063;-79
2022/05/08 05:03:50;;;;;;;8.70;2.30;;;7.50;99.90;;;;;;5051694;28;20381;-82
2022/05/08 05:06:16;;;;;;;9.45;2.38;;;7.60;99.90;;;;;;5031764;28;20053;-81
2022/05/08 05:08:41;;;;;;;14.38;2.17;;;7.70;99.90;;;;;;5040969;28;20048;-82
2022/05/08 05:11:11;;;;;;;12.07;2.28;;;7.80;99.90;;;;;;5037620;28;20463;-81
2022/05/08 05:13:37;;;;;;;13.70;2.40;;;7.90;99.90;;;;;;5035334;28;20396;-82
2022/05/08 05:16:06;;;;;;;7.47;2.08;;;7.90;99.90;;;;;;5048077;28;20344;-78
2022/05/08 05:18:32;;;;;;;9.13;3.47;;;8.00;99.90;;;;;;5038340;28;20047;-79
2022/05/08 05:20:57;;;;;;;16.63;2.70;;;8.10;99.90;;;;;;5042146;28;20041;-80
2022/05/08 05:23:23;;;;;;;9.50;2.28;;;8.20;99.90;;;;;;5016464;28;20037;-80
2022/05/08 05:25:50;;;;;;;8.93;2.22;;;8.20;99.90;;;;;;5042528;28;20046;-80
2022/05/08 05:28:16;;;;;;;11.65;2.40;;;8.30;99.90;;;;;;5030300;28;20053;-80
2022/05/08 05:30:42;;;;;;;6.70;1.55;;;8.40;99.90;;;;;;5013575;28;20381;-80
2022/05/08 05:33:10;;;;;;;10.13;2.08;;;8.50;99.90;;;;;;5030595;28;20041;-80
2022/05/08 05:35:37;;;;;;;7.53;1.77;;;8.50;99.90;;;;;;5035090;28;20080;-80
2022/05/08 05:38:03;;;;;;;10.98;2.05;;;8.60;99.90;;;;;;5037386;28;20041;-80
2022/05/08 05:40:29;;;;;;;8.13;2.55;;;8.60;99.90;;;;;;5050398;28;20072;-80
2022/05/08 05:42:57;;;;;;;10.65;1.63;;;8.70;99.90;;;;;;5035295;28;20037;-80
2022/05/08 05:45:23;;;;;;;13.07;2.15;;;8.80;99.90;;;;;;5021989;28;20060;-80
2022/05/08 05:47:49;;;;;;;10.10;2.03;;;8.90;99.90;;;;;;5035292;28;20376;-81
2022/05/08 05:50:18;;;;;;;13.40;2.20;;;8.90;99.90;;;;;;5023626;28;20045;-80
2022/05/08 05:52:43;;;;;;;7.03;1.77;;;9.00;99.90;;;;;;5049722;28;20037;-80
2022/05/08 05:55:09;;;;;;;10.02;2.13;;;9.10;99.90;;;;;;5049081;28;20075;-80
2022/05/08 05:57:36;;;;;;;12.85;1.98;;;9.10;99.90;;;;;;5044862;28;20049;-79
2022/05/08 06:00:03;;;;;;;10.05;2.33;;;9.20;99.90;;;;;;5050103;28;20627;-81
2022/05/08 06:02:29;;;;;;;13.43;2.00;;;9.30;99.90;;;;;;5048257;28;20063;-80
2022/05/08 06:04:54;;;;;;;11.68;2.28;;;9.40;99.90;;;;;;5032490;28;20463;-80
2022/05/08 06:07:20;;;;;;;10.00;1.88;;;9.40;99.90;;;;;;5041342;28;20080;-80
2022/05/08 06:09:45;;;;;;;8.52;1.88;;;9.50;99.90;;;;;;5034297;28;20041;-80
2022/05/08 06:12:11;;;;;;;12.02;2.20;;;9.50;99.90;;;;;;5029641;28;20686;-80
2022/05/08 06:14:37;;;;;;;10.15;2.33;;;9.60;99.90;;;;;;5014781;28;20557;-81
2022/05/08 06:17:03;;;;;;;7.75;1.88;;;9.60;99.90;;;;;;5031049;28;20052;-81
2022/05/08 06:19:31;;;;;;;16.42;1.90;;;9.70;99.90;;;;;;5029682;28;20048;-82
2022/05/08 06:21:57;;;;;;;12.73;1.92;;;9.70;99.90;;;;;;5049447;28;20049;-81
2022/05/08 06:24:22;;;;;;;12.75;2.30;;;9.80;99.90;;;;;;5042139;28;20080;-82
2022/05/08 06:26:48;;;;;;;7.03;1.90;;;9.80;99.90;;;;;;5012169;28;20076;-81
2022/05/08 06:29:14;;;;;;;11.07;1.73;;;9.90;99.90;;;;;;5016658;28;20756;-81
2022/05/08 06:31:39;;;;;;;11.68;1.88;;;9.90;99.90;;;;;;5031708;28;20488;-82
2022/05/08 06:34:05;;;;;;;17.88;2.97;;;9.90;99.90;;;;;;5049939;28;20036;-80
2022/05/08 06:36:32;;;;;;;11.50;2.42;;;10.00;99.90;;;;;;5039176;28;20481;-80
2022/05/08 06:38:58;;;;;;;11.95;1.80;;;10.00;99.90;;;;;;5047484;28;20049;-80
2022/05/08 06:41:24;;;;;;;13.77;2.45;;;10.10;99.90;;;;;;5066474;28;20182;-83
2022/05/08 06:43:50;;;;;;;16.90;2.95;;;10.10;99.90;;;;;;5043659;28;20049;-81
2022/05/08 06:46:15;;;;;;;11.25;2.10;;;10.10;99.90;;;;;;5041213;28;20043;-81
2022/05/08 06:48:41;;;;;;;13.43;2.22;;;10.20;99.90;;;;;;5037538;28;20119;-80
2022/05/08 06:51:07;;;;;;;13.98;2.50;;;10.20;99.90;;;;;;5032287;28;20041;-79
2022/05/08 06:53:32;;;;;;;18.83;2.55;;;10.20;99.90;;;;;;5063900;28;20036;-80
2022/05/08 06:55:58;;;;;;;14.05;2.20;;;10.20;99.90;;;;;;5059269;28;20044;-80
2022/05/08 06:58:24;;;;;;;10.02;2.30;;;10.20;99.90;;;;;;5033921;28;20048;-80
2022/05/08 07:03:36;;;;;;;8.50;1.65;;;10.20;99.90;;;;;;5053726;28;20106;-80
2022/05/08 07:06:01;;;;;;;13.68;3.00;;;10.30;99.90;;;;;;5060282;28;20123;-81
2022/05/08 07:08:27;;;;;;;11.98;2.35;;;10.40;99.90;;;;;;5012959;28;20400;-80
2022/05/08 07:10:53;;;;;;;12.27;2.40;;;10.50;99.90;;;;;;5021065;28;20057;-80
2022/05/08 07:13:23;;;;;;;16.35;2.10;;;10.60;99.90;;;;;;5046613;28;20048;-81
2022/05/08 07:15:49;;;;;;;15.65;2.72;;;10.80;99.90;;;;;;5045344;28;20531;-80
2022/05/08 07:18:14;;;;;;;12.38;2.25;;;10.90;99.90;;;;;;5045267;28;20049;-79
2022/05/08 07:20:40;;;;;;;15.13;2.88;;;11.00;99.90;;;;;;5047252;28;20052;-80
2022/05/08 07:23:06;;;;;;;14.00;2.08;;;11.10;99.90;;;;;;5048562;28;20049;-82
2022/05/08 07:25:31;;;;;;;13.02;2.47;;;11.10;99.90;;;;;;5045963;28;20041;-81
2022/05/08 07:27:57;;;;;;;9.93;2.60;;;11.10;99.90;;;;;;5027643;28;20045;-80
2022/05/08 07:30:23;;;;;;;9.75;2.05;;;11.00;99.90;;;;;;5021426;28;20053;-80
2022/05/08 07:32:48;;;;;;;9.85;1.90;;;11.00;99.90;;;;;;5061555;28;20044;-81
2022/05/08 07:38:17;;;;;;;10.23;1.95;;;10.90;99.90;;;;;;4979918;28;20054;-80
2022/05/08 07:40:47;;;;;;;16.45;1.88;;;10.80;99.90;;;;;;5038379;28;20048;-82
2022/05/08 07:43:13;;;;;;;15.15;2.22;;;10.80;99.90;;;;;;5051117;28;20116;-80
2022/05/08 07:45:38;;;;;;;13.10;2.33;;;10.70;99.90;;;;;;5031049;28;20132;-85
2022/05/08 07:48:04;;;;;;;7.78;1.80;;;10.70;99.90;;;;;;5024658;28;20160;-82
2022/05/08 07:50:30;;;;;;;9.98;2.13;;;10.70;99.90;;;;;;5043275;28;20064;-79
2022/05/08 07:52:56;;;;;;;13.85;2.25;;;10.70;99.90;;;;;;5014983;28;20446;-82
2022/05/08 07:55:21;;;;;;;13.18;1.90;;;10.70;99.90;;;;;;5047917;28;20442;-81
2022/05/08 07:57:47;;;;;;;10.52;1.70;;;10.70;99.90;;;;;;5047928;28;20095;-80
2022/05/08 08:00:16;;;;;;;17.02;2.20;;;10.80;99.90;;;;;;5067367;28;20425;-81
2022/05/08 08:02:42;;;;;;;12.15;2.08;;;10.80;99.90;;;;;;5024367;28;20048;-80
2022/05/08 08:05:07;;;;;;;12.98;2.20;;;10.90;99.90;;;;;;5018771;28;20053;-82
2022/05/08 08:07:33;;;;;;;10.98;2.88;;;11.00;99.90;;;;;;5048183;28;20120;-80
2022/05/08 08:09:59;;;;;;;15.45;2.17;;;11.10;99.90;;;;;;5037716;28;20056;-80
2022/05/08 08:12:24;;;;;;;12.18;2.30;;;11.20;99.90;;;;;;5046608;28;20061;-81
2022/05/08 08:14:50;;;;;;;12.40;2.65;;;11.20;99.90;;;;;;5047925;28;20040;-82
2022/05/08 08:17:16;;;;;;;9.13;1.80;;;11.20;99.90;;;;;;5034413;28;20086;-80
2022/05/08 08:19:41;;;;;;;14.85;2.58;;;11.20;99.90;;;;;;5033205;28;20136;-79
2022/05/08 08:22:07;;;;;;;15.07;2.35;;;11.20;99.90;;;;;;5053487;28;20440;-80
2022/05/08 08:24:32;;;;;;;19.60;3.72;;;11.30;99.90;;;;;;5034171;28;20129;-79
2022/05/08 08:26:58;;;;;;;18.73;3.35;;;11.40;99.90;;;;;;5042016;28;20175;-80
2022/05/08 08:29:24;;;;;;;17.52;2.22;;;11.40;99.90;;;;;;5059369;28;20123;-80
2022/05/08 08:31:49;;;;;;;15.07;2.63;;;11.50;99.90;;;;;;5029858;28;20099;-80
2022/05/08 08:34:15;;;;;;;12.20;2.30;;;11.50;99.90;;;;;;5050357;28;20101;-79
2022/05/08 08:36:40;;;;;;;11.57;1.80;;;11.50;99.90;;;;;;5034852;28;20052;-81
2022/05/08 08:39:06;;;;;;;11.93;2.20;;;11.50;99.90;;;;;;5045891;28;20044;-80
2022/05/08 08:41:35;;;;;;;13.88;2.78;;;11.60;99.90;;;;;;5066561;28;20064;-80
2022/05/08 08:49:50;;;;;;;10.38;2.63;;;11.50;99.90;;;;;;5039310;28;20667;-84
2022/05/08 08:52:18;;;;;;;12.07;2.10;;;11.60;99.90;;;;;;5049082;28;20045;-80
2022/05/08 08:54:44;;;;;;;16.63;2.40;;;11.60;99.90;;;;;;5048566;28;20174;-81
2022/05/08 08:57:10;;;;;;;8.50;2.50;;;11.70;99.90;;;;;;5058786;28;20428;-80
2022/05/08 08:59:35;;;;;;;27.50;2.85;;;11.70;99.90;;;;;;5031278;28;20064;-78
2022/05/08 09:02:01;;;;;;;17.00;2.67;;;11.80;99.90;;;;;;5044713;28;20037;-81
2022/05/08 09:04:27;;;;;;;14.38;1.88;;;11.80;99.90;;;;;;5021651;28;20362;-87
2022/05/08 09:06:52;;;;;;;10.13;2.00;;;11.80;99.90;;;;;;5042159;28;20049;-81
2022/05/08 09:09:31;;;;;;;13.55;3.17;;;11.80;99.90;;;;;;5055435;28;20040;-84
2022/05/08 09:11:57;;;;;;;16.42;2.15;;;11.80;99.90;;;;;;5051156;28;20353;-81
2022/05/08 09:14:30;;;;;;;10.32;2.03;;;11.80;99.90;;;;;;5050606;28;20086;-84
2022/05/08 09:16:56;;;;;;;18.67;2.33;;;11.80;99.90;;;;;;5031569;28;20175;-82
2022/05/08 09:19:39;;;;;;;11.50;2.10;;;11.80;99.90;;;;;;5043488;28;20072;-82
2022/05/08 09:22:06;;;;;;;15.32;2.55;;;11.90;99.90;;;;;;5012333;28;20099;-77
2022/05/08 09:24:36;;;;;;;10.60;2.50;;;11.90;99.90;;;;;;5036924;28;20120;-79
2022/05/08 09:27:13;;;;;;;10.43;1.95;;;12.00;99.90;;;;;;5033423;28;20125;-77
2022/05/08 09:29:40;;;;;;;11.90;2.25;;;12.10;99.90;;;;;;5043219;28;20041;-77
2022/05/08 09:32:06;;;;;;;10.57;2.00;;;12.20;99.90;;;;;;5028443;28;20036;-78
2022/05/08 09:34:58;;;;;;;10.77;2.60;;;12.20;99.90;;;;;;5046395;28;20084;-78
2022/05/08 09:37:27;;;;;;;15.85;2.45;;;12.30;99.70;;;;;;5032546;28;20632;-76
2022/05/08 09:40:17;;;;;;;11.00;2.78;;;12.30;99.70;;;;;;5043567;28;20036;-77
2022/05/08 09:42:43;;;;;;;14.98;2.17;;;12.30;99.70;;;;;;5039997;28;20778;-78
2022/05/08 09:45:10;;;;;;;11.63;2.00;;;12.40;99.60;;;;;;5041436;28;20088;-81
2022/05/08 09:47:43;;;;;;;10.40;2.60;;;12.40;99.60;;;;;;5037985;28;20049;-73
2022/05/08 09:50:10;;;;;;;14.15;2.20;;;12.50;99.50;;;;;;5029898;28;20472;-73
2022/05/08 09:52:40;;;;;;;11.68;2.30;;;12.50;99.00;;;;;;5038660;28;20048;-77
2022/05/08 09:55:18;;;;;;;8.00;2.17;;;12.50;98.60;;;;;;5045649;28;20056;-76
2022/05/08 09:57:43;;;;;;;10.50;2.42;;;12.60;98.60;;;;;;5043280;28;20045;-77
2022/05/08 10:00:10;;;;;;;14.52;2.45;;;12.70;98.70;;;;;;5048071;28;20045;-76
2022/05/08 10:02:38;;;;;;;9.75;1.73;;;12.70;98.60;;;;;;5048847;28;20183;-76
2022/05/08 10:05:04;;;;;;;13.07;2.05;;;12.80;98.20;;;;;;5048457;28;20136;-76
2022/05/08 10:07:31;;;;;;;8.93;1.70;;;12.80;98.00;;;;;;5060183;28;20495;-76
2022/05/08 10:15:32;;;;;;;13.77;2.45;;;12.90;97.30;;;;;;5028770;28;20064;-75
2022/05/08 10:18:27;;;;;;;12.55;2.58;;;13.00;97.50;;;;;;5057857;28;20045;-77
2022/05/08 10:21:07;;;;;;;12.70;1.92;;;13.00;97.30;;;;;;5048148;28;20082;-76
2022/05/08 10:23:40;;;;;;;9.25;1.75;;;13.10;97.30;;;;;;5044891;28;20087;-78
2022/05/08 10:26:23;;;;;;;12.40;2.60;;;13.10;97.30;;;;;;5044760;28;20099;-78
2022/05/08 10:29:11;;;;;;;11.32;2.15;;;13.20;97.10;;;;;;5043758;28;20596;-76
2022/05/08 10:31:42;;;;;;;11.32;2.35;;;13.20;97.10;;;;;;5039336;28;20128;-78
2022/05/08 10:34:08;;;;;;;;;;;13.40;97.00;;;;;;5044698;28;20461;-78
2022/05/08 10:36:34;;;;;;;14.30;2.33;;;13.30;97.00;;;;;;5025489;28;19931;-78
2022/05/08 10:39:43;;;;;;;14.93;2.72;;;13.40;97.00;;;;;;5031710;28;20045;-78
2022/05/08 10:42:27;;;;;;;18.95;2.72;;;13.40;96.50;;;;;;5034283;28;20557;-77
2022/05/08 10:44:54;;;;;;;9.45;1.92;;;13.50;96.30;;;;;;5026192;28;20154;-78
2022/05/08 10:50:02;;;;;;;10.43;2.40;;;13.60;95.90;;;;;;5045876;28;20511;-77
2022/05/08 10:52:27;;;;;;;12.57;1.73;;;13.50;95.90;;;;;;5026070;28;20102;-78
2022/05/08 10:54:57;;;;;;;15.65;2.97;;;13.70;96.00;;;;;;5033318;28;20041;-78
2022/05/08 10:57:29;;;;;;;13.48;2.22;;;13.80;95.70;;;;;;5018070;28;20851;-78
2022/05/08 10:59:55;;;;;;;11.38;2.42;;;13.90;95.40;;;;;;5043214;28;20036;-75
2022/05/08 11:02:42;;;;;;;20.08;2.72;;;13.90;95.20;;;;;;5029653;28;20041;-77
2022/05/08 11:05:09;;;;;;;9.95;2.53;;;14.00;95.00;;;;;;5028585;28;20052;-78
2022/05/08 11:07:37;;;;;;;11.73;2.28;;;14.00;94.70;;;;;;5023743;28;20492;-77
2022/05/08 11:10:15;;;;;;;9.27;2.05;;;14.00;94.50;;;;;;5030137;28;20048;-78
2022/05/08 11:13:12;;;;;;;10.55;1.88;;;14.10;94.60;;;;;;5041087;28;20048;-77
2022/05/08 11:15:45;;;;;;;14.45;2.53;;;14.10;94.60;;;;;;5026600;28;20044;-76
2022/05/08 11:18:16;;;;;;;9.07;2.13;;;14.30;94.80;;;;;;5028413;28;20044;-78
2022/05/08 11:20:57;;;;;;;12.02;2.05;;;14.30;94.70;;;;;;5026677;28;20059;-78
2022/05/08 11:23:26;;;;;;;9.02;2.40;;;14.40;93.90;;;;;;5029738;28;20155;-77
2022/05/08 11:25:57;;;;;;;11.43;1.80;;;14.50;94.20;;;;;;5021848;28;20445;-78
2022/05/08 11:28:23;;;;;;;;;;;14.60;93.90;;;;;;5028303;28;20535;-78
2022/05/08 11:30:53;;;;;;;15.20;2.92;;;14.60;93.20;;;;;;5046589;28;19921;-79
2022/05/08 11:36:25;;;;;;;12.90;2.63;;;14.80;93.50;;;;;;5045343;28;20060;-77
2022/05/08 11:38:55;;;;;;;10.40;1.95;;;14.90;93.00;;;;;;5028253;28;20459;-78
2022/05/08 11:41:25;;;;;;;8.10;2.40;;;15.00;93.00;;;;;;5020991;28;20378;-79
2022/05/08 11:43:55;;;;;;;7.68;2.13;;;15.10;93.40;;;;;;5042215;28;20387;-78
2022/05/08 11:46:38;;;;;;;13.93;3.03;;;15.20;92.90;;;;;;5017527;28;20105;-77
2022/05/08 11:49:27;;;;;;;13.27;2.72;;;15.30;93.10;;;;;;5026716;28;20037;-76
2022/05/08 11:51:58;;;;;;;14.32;1.90;;;15.40;91.80;;;;;;5030709;28;20380;-77
2022/05/08 11:54:35;;;;;;;14.93;2.35;;;15.40;91.90;;;;;;5026972;28;20033;-78
2022/05/08 11:57:21;;;;;;;10.52;2.35;;;15.50;91.90;;;;;;5047524;28;20063;-78
2022/05/08 11:59:49;;;;;;;9.57;2.00;;;15.60;91.40;;;;;;5051435;28;20055;-78
2022/05/08 12:02:15;;;;;;;8.23;1.90;;;15.70;91.30;;;;;;5032003;28;20047;-79
2022/05/08 12:04:52;;;;;;;13.20;2.47;;;15.80;90.60;;;;;;5038293;28;20064;-78
2022/05/08 12:07:17;;;;;;;8.10;2.08;;;15.80;89.10;;;;;;5031753;28;20055;-78
2022/05/08 12:09:55;;;;;;;8.57;2.05;;;15.90;89.30;;;;;;5051328;28;20037;-78
2022/05/08 12:12:29;;;;;;;13.57;2.58;;;16.00;89.30;;;;;;5015221;28;20080;-77
2022/05/08 12:15:03;;;;;;;10.68;2.47;;;16.10;89.10;;;;;;5013684;28;20042;-78
2022/05/08 12:17:31;;;;;;;14.63;2.83;;;16.20;89.20;;;;;;5013897;28;20041;-78
2022/05/08 12:19:58;;;;;;;12.80;2.47;;;16.30;88.60;;;;;;5023401;28;20094;-76
2022/05/08 12:22:26;;;;;;;12.68;2.40;;;16.40;88.20;;;;;;5046638;28;20393;-77
2022/05/08 12:24:52;;;;;;;15.05;2.70;;;16.50;87.20;;;;;;5052271;28;20102;-78
2022/05/08 12:27:18;;;;;;;14.65;3.20;;;16.60;86.30;;;;;;5014356;28;20143;-78
2022/05/08 12:29:46;;;;;;;9.00;2.60;;;16.80;85.70;;;;;;5032049;28;20451;-78
2022/05/08 12:32:15;;;;;;;15.70;2.30;;;16.80;84.90;;;;;;5045162;28;20052;-79
2022/05/08 12:34:42;;;;;;;16.23;2.45;;;16.80;84.80;;;;;;5044909;28;20041;-78
2022/05/08 12:37:13;;;;;;;10.68;2.28;;;16.90;83.10;;;;;;5031743;28;20045;-78
2022/05/08 12:39:39;;;;;;;14.80;2.35;;;16.90;83.30;;;;;;5035072;28;20045;-78
2022/05/08 12:42:06;;;;;;;10.88;1.92;;;17.00;83.20;;;;;;5030116;28;20474;-77
2022/05/08 12:44:33;;;;;;;12.68;2.30;;;17.00;83.20;;;;;;5031587;28;20050;-77
2022/05/08 12:47:00;;;;;;;12.85;2.53;;;17.10;82.60;;;;;;5031862;28;20479;-77
2022/05/08 12:49:25;;;;;;;10.52;2.00;;;17.10;81.90;;;;;;5030126;28;20144;-78
2022/05/08 12:51:51;;;;;;;15.80;2.08;;;17.20;81.00;;;;;;5048948;28;20049;-78
2022/05/08 12:54:17;;;;;;;14.32;2.10;;;17.20;79.90;;;;;;5022795;28;20183;-78
2022/05/08 12:56:44;;;;;;;8.27;2.30;;;17.30;79.70;;;;;;5031034;28;20038;-78
2022/05/08 13:01:54;;;;;;;8.07;2.00;;;17.40;78.50;;;;;;5013807;28;20120;-78
2022/05/08 13:04:20;;;;;;;9.40;1.88;;;17.40;78.00;;;;;;5011954;28;20107;-77
2022/05/08 13:06:46;;;;;;;14.90;2.70;;;17.40;77.20;;;;;;5014721;28;20057;-77
2022/05/08 13:09:12;;;;;;;14.98;1.80;;;17.40;76.80;;;;;;5047379;28;20452;-77
2022/05/08 13:11:38;;;;;;;13.02;2.33;;;17.40;76.20;;;;;;5032826;28;20053;-76
2022/05/08 13:14:05;;;;;;;16.73;2.90;;;17.40;75.30;;;;;;5030897;28;20040;-78
2022/05/08 13:16:31;;;;;;;13.73;2.40;;;17.30;75.60;;;;;;5051409;28;20045;-77
2022/05/08 13:18:57;;;;;;;22.10;2.90;;;17.30;75.40;;;;;;5032662;28;20171;-76
2022/05/08 13:21:23;;;;;;;13.18;2.15;;;17.20;75.30;;;;;;5025597;28;20143;-78
2022/05/08 13:23:49;;;;;;;11.68;3.00;;;17.10;75.30;;;;;;5033238;28;20128;-79